createdAt,value
2018-05-07T00:00:07.633Z,23.6
2018-05-07T00:00:57.696Z,23.6
2018-05-07T00:01:47.992Z,23.6
2018-05-07T00:02:37.790Z,23.6
2018-05-07T00:03:27.667Z,23.6
2018-05-07T00:04:17.715Z,23.6
2018-05-07T00:05:08.015Z,23.6
2018-05-07T00:05:59.630Z,23.6
2018-05-07T00:06:48.382Z,23.5
2018-05-07T00:07:38.301Z,23.6
2018-05-07T00:08:27.104Z,23.6
2018-05-07T00:09:18.760Z,23.5
2018-05-07T00:10:08.202Z,23.6
2018-05-07T00:10:58.760Z,23.5
2018-05-07T00:11:49.426Z,23.5
2018-05-07T00:12:38.362Z,23.5
2018-05-07T00:13:28.689Z,23.5
2018-05-07T00:14:18.507Z,23.5
2018-05-07T00:15:09.033Z,23.5
2018-05-07T00:15:58.589Z,23.5
2018-05-07T00:16:48.873Z,23.5
2018-05-07T00:17:38.662Z,23.5
2018-05-07T00:18:29.043Z,23.5
2018-05-07T00:19:18.519Z,23.5
2018-05-07T00:20:08.862Z,23.5
2018-05-07T00:20:58.624Z,23.5
2018-05-07T00:21:48.717Z,23.5
2018-05-07T00:22:38.924Z,23.5
2018-05-07T00:23:29.715Z,23.5
2018-05-07T00:24:19.486Z,23.5
2018-05-07T00:25:08.708Z,23.5
2018-05-07T00:25:59.059Z,23.5
2018-05-07T00:26:49.510Z,23.5
2018-05-07T00:27:39.570Z,23.5
2018-05-07T00:28:30.168Z,23.5
2018-05-07T00:29:19.867Z,23.5
2018-05-07T00:30:09.103Z,23.5
2018-05-07T00:30:59.769Z,23.5
2018-05-07T00:31:49.883Z,23.5
2018-05-07T00:32:40.156Z,23.5
2018-05-07T00:33:29.356Z,23.5
2018-05-07T00:34:19.499Z,23.5
2018-05-07T00:35:10.511Z,23.5
2018-05-07T00:36:00.643Z,23.5
2018-05-07T00:36:49.629Z,23.5
2018-05-07T00:37:40.779Z,23.5
2018-05-07T00:38:30.091Z,23.5
2018-05-07T00:39:20.633Z,23.5
2018-05-07T00:40:10.215Z,23.5
2018-05-07T00:41:00.191Z,23.5
2018-05-07T00:41:50.281Z,23.5
2018-05-07T00:42:40.665Z,23.5
2018-05-07T00:43:30.475Z,23.4
2018-05-07T00:44:21.368Z,23.5
2018-05-07T00:45:10.833Z,23.5
2018-05-07T00:46:00.325Z,23.5
2018-05-07T00:46:51.528Z,23.5
2018-05-07T00:47:41.554Z,23.4
2018-05-07T00:48:31.029Z,23.5
2018-05-07T00:49:21.354Z,23.4
2018-05-07T00:50:11.709Z,23.4
2018-05-07T00:51:01.551Z,23.4
2018-05-07T00:51:51.309Z,23.4
2018-05-07T00:52:41.927Z,23.5
2018-05-07T00:53:32.061Z,23.5
2018-05-07T00:54:21.761Z,23.5
2018-05-07T00:55:11.289Z,23.5
2018-05-07T00:56:01.365Z,23.5
2018-05-07T00:56:52.267Z,23.4
2018-05-07T00:57:42.062Z,23.5
2018-05-07T00:58:32.384Z,23.4
2018-05-07T00:59:21.603Z,23.4
2018-05-07T01:00:11.388Z,23.4
2018-05-07T01:01:02.334Z,23.5
2018-05-07T01:01:51.522Z,23.4
2018-05-07T01:02:42.718Z,23.5
2018-05-07T01:03:32.511Z,23.4
2018-05-07T01:04:22.556Z,23.5
2018-05-07T01:05:12.060Z,23.4
2018-05-07T01:06:02.428Z,23.4
2018-05-07T01:06:52.257Z,23.4
2018-05-07T01:07:42.519Z,23.4
2018-05-07T01:08:32.889Z,23.4
2018-05-07T01:09:22.929Z,23.4
2018-05-07T01:10:12.744Z,23.4
2018-05-07T01:11:02.794Z,23.4
2018-05-07T01:11:52.604Z,23.4
2018-05-07T01:12:43.863Z,23.4
2018-05-07T01:13:33.545Z,23.4
2018-05-07T01:14:23.066Z,23.4
2018-05-07T01:15:13.414Z,23.4
2018-05-07T01:16:03.702Z,23.4
2018-05-07T01:16:53.551Z,23.4
2018-05-07T01:17:43.322Z,23.4
2018-05-07T01:18:33.349Z,23.4
2018-05-07T01:19:23.434Z,23.4
2018-05-07T01:20:13.480Z,23.4
2018-05-07T01:21:04.081Z,23.4
2018-05-07T01:21:53.670Z,23.4
2018-05-07T01:22:44.222Z,23.4
2018-05-07T01:23:34.280Z,23.4
2018-05-07T01:24:23.901Z,23.4
2018-05-07T01:25:14.177Z,23.4
2018-05-07T01:26:04.246Z,23.4
2018-05-07T01:26:53.458Z,23.4
2018-05-07T01:27:44.147Z,23.4
2018-05-07T01:28:33.868Z,23.4
2018-05-07T01:29:24.225Z,23.4
2018-05-07T01:30:14.588Z,23.4
2018-05-07T01:31:03.773Z,23.4
2018-05-07T01:31:53.866Z,23.4
2018-05-07T01:32:44.777Z,23.4
2018-05-07T01:33:34.584Z,23.4
2018-05-07T01:34:24.313Z,23.4
2018-05-07T01:35:14.391Z,23.4
2018-05-07T01:36:05.031Z,23.4
2018-05-07T01:36:55.089Z,23.4
2018-05-07T01:37:44.842Z,23.4
2018-05-07T01:38:35.237Z,23.4
2018-05-07T01:39:25.124Z,23.4
2018-05-07T01:40:15.615Z,23.3
2018-05-07T01:41:05.391Z,23.4
2018-05-07T01:41:55.463Z,23.3
2018-05-07T01:42:45.821Z,23.3
2018-05-07T01:43:35.344Z,23.3
2018-05-07T01:44:25.151Z,23.3
2018-05-07T01:45:16.050Z,23.3
2018-05-07T01:46:05.748Z,23.4
2018-05-07T01:46:55.821Z,23.4
2018-05-07T01:47:45.600Z,23.3
2018-05-07T01:48:36.318Z,23.3
2018-05-07T01:49:26.033Z,23.4
2018-05-07T01:50:16.106Z,23.4
2018-05-07T01:51:06.538Z,23.4
2018-05-07T01:51:56.554Z,23.3
2018-05-07T01:52:46.562Z,23.3
2018-05-07T01:53:36.401Z,23.3
2018-05-07T01:54:26.779Z,23.4
2018-05-07T01:55:15.955Z,23.3
2018-05-07T01:56:06.264Z,23.3
2018-05-07T01:56:56.642Z,23.4
2018-05-07T01:57:46.699Z,23.4
2018-05-07T01:58:36.733Z,23.4
2018-05-07T01:59:26.842Z,23.4
2018-05-07T02:00:16.567Z,23.4
2018-05-07T02:01:06.922Z,23.4
2018-05-07T02:01:56.733Z,23.4
2018-05-07T02:02:46.509Z,23.4
2018-05-07T02:03:36.616Z,23.4
2018-05-07T02:04:26.925Z,23.4
2018-05-07T07:27:05.329Z,23.8
2018-05-07T07:27:55.503Z,23.8
2018-05-07T07:28:45.732Z,23.8
2018-05-07T07:29:35.777Z,23.8
2018-05-07T07:30:25.841Z,23.8
2018-05-07T07:31:15.645Z,23.8
2018-05-07T07:32:05.672Z,23.8
2018-05-07T07:32:55.794Z,23.8
2018-05-07T07:33:46.041Z,23.8
2018-05-07T07:34:35.326Z,23.8
2018-05-07T07:35:26.467Z,23.8
2018-05-07T07:36:16.010Z,23.8
2018-05-07T07:37:06.377Z,23.8
2018-05-07T07:37:56.392Z,23.8
2018-05-07T07:38:45.410Z,23.8
2018-05-07T07:39:37.132Z,23.8
2018-05-07T07:40:26.613Z,23.8
2018-05-07T07:41:15.292Z,23.8
2018-05-07T07:42:06.257Z,23.8
2018-05-07T07:42:55.999Z,23.8
2018-05-07T07:43:46.369Z,23.8
2018-05-07T07:44:36.983Z,23.8
2018-05-07T07:45:25.925Z,23.8
2018-05-07T07:46:17.049Z,23.8
2018-05-07T07:47:08.372Z,23.8
2018-05-07T07:47:57.186Z,23.8
2018-05-07T07:48:47.004Z,23.8
2018-05-07T07:49:37.376Z,23.8
2018-05-07T07:50:26.290Z,23.8
2018-05-07T07:51:16.914Z,23.8
2018-05-07T07:52:06.886Z,23.8
2018-05-07T07:52:57.307Z,23.8
2018-05-07T07:53:47.573Z,23.8
2018-05-07T07:54:37.179Z,23.8
2018-05-07T07:55:26.658Z,23.8
2018-05-07T07:56:17.865Z,23.8
2018-05-07T07:57:06.813Z,23.8
2018-05-07T07:57:57.425Z,23.8
2018-05-07T07:58:46.667Z,23.8
2018-05-07T07:59:37.308Z,23.8
2018-05-07T08:00:27.066Z,23.8
2018-05-07T08:01:17.736Z,23.8
2018-05-07T08:02:08.191Z,23.8
2018-05-07T08:02:57.141Z,23.8
2018-05-07T08:03:47.618Z,23.8
2018-05-07T08:04:37.721Z,23.8
2018-05-07T08:05:27.541Z,23.8
2018-05-07T08:06:17.638Z,23.8
2018-05-07T08:07:07.923Z,23.9
2018-05-07T08:07:57.391Z,23.8
2018-05-07T08:08:48.032Z,23.8
2018-05-07T08:09:38.654Z,23.8
2018-05-07T08:10:28.446Z,23.8
2018-05-07T08:11:18.516Z,23.8
2018-05-07T08:12:08.645Z,23.8
2018-05-07T08:12:58.765Z,23.8
2018-05-07T08:13:48.752Z,23.8
2018-05-07T08:14:38.158Z,23.8
2018-05-07T08:15:28.484Z,23.8
2018-05-07T08:16:19.435Z,23.8
2018-05-07T08:17:09.264Z,23.8
2018-05-07T08:17:59.547Z,23.9
2018-05-07T08:18:48.482Z,23.8
2018-05-07T08:19:39.340Z,23.9
2018-05-07T08:20:29.480Z,23.9
2018-05-07T08:21:19.033Z,23.9
2018-05-07T08:22:09.357Z,23.9
2018-05-07T08:22:59.715Z,23.9
2018-05-07T08:23:49.729Z,23.9
2018-05-07T08:24:40.024Z,23.9
2018-05-07T08:25:29.854Z,23.9
2018-05-07T08:26:19.357Z,23.9
2018-05-07T08:27:09.694Z,23.9
2018-05-07T08:28:00.344Z,23.9
2018-05-07T08:28:50.154Z,23.9
2018-05-07T08:29:40.193Z,23.9
2018-05-07T08:30:31.170Z,23.9
2018-05-07T08:31:20.016Z,23.9
2018-05-07T08:32:10.353Z,23.9
2018-05-07T08:33:00.518Z,23.9
2018-05-07T08:33:49.963Z,23.9
2018-05-07T08:34:40.367Z,23.9
2018-05-07T08:35:30.923Z,23.9
2018-05-07T08:36:20.751Z,23.9
2018-05-07T08:37:10.720Z,23.9
2018-05-07T08:38:01.328Z,23.9
2018-05-07T08:38:51.193Z,23.9
2018-05-07T08:39:41.280Z,23.9
2018-05-07T08:40:30.457Z,23.9
2018-05-07T08:41:21.068Z,23.9
2018-05-07T08:42:10.924Z,23.9
2018-05-07T08:43:01.470Z,23.9
2018-05-07T08:43:51.566Z,23.9
2018-05-07T08:44:41.055Z,23.9
2018-05-07T08:45:31.121Z,23.9
2018-05-07T08:46:21.173Z,23.9
2018-05-07T08:47:11.881Z,23.9
2018-05-07T08:48:01.889Z,23.9
2018-05-07T08:48:51.094Z,23.9
2018-05-07T08:49:41.814Z,23.9
2018-05-07T08:50:31.555Z,23.9
2018-05-07T08:51:22.099Z,23.9
2018-05-07T08:52:11.913Z,23.9
2018-05-07T08:53:02.853Z,23.9
2018-05-07T08:53:52.050Z,23.8
2018-05-07T08:54:42.405Z,23.9
2018-05-07T08:55:32.464Z,23.9
2018-05-07T08:56:22.245Z,23.9
2018-05-07T08:57:12.099Z,23.9
2018-05-07T08:58:02.114Z,23.9
2018-05-07T08:58:52.173Z,23.9
2018-05-07T08:59:42.317Z,23.9
2018-05-07T09:00:31.735Z,23.9
2018-05-07T09:01:22.991Z,23.9
2018-05-07T09:02:13.554Z,23.9
2018-05-07T09:03:02.036Z,23.9
2018-05-07T09:03:52.640Z,23.9
2018-05-07T09:04:42.949Z,23.9
2018-05-07T09:05:33.280Z,23.9
2018-05-07T09:06:21.622Z,23.9
2018-05-07T09:07:12.812Z,23.9
2018-05-07T09:08:03.936Z,23.9
2018-05-07T09:08:53.224Z,23.9
2018-05-07T09:09:43.560Z,23.9
2018-05-07T09:10:33.370Z,23.9
2018-05-07T09:11:23.707Z,23.9
2018-05-07T09:12:13.242Z,23.9
2018-05-07T09:13:03.035Z,23.9
2018-05-07T09:13:53.080Z,23.9
2018-05-07T09:14:42.674Z,23.9
2018-05-07T09:15:32.372Z,23.9
2018-05-07T09:16:23.652Z,23.9
2018-05-07T09:17:13.621Z,23.9
2018-05-07T09:18:04.260Z,23.9
2018-05-07T09:18:53.759Z,23.9
2018-05-07T09:19:44.104Z,23.9
2018-05-07T09:20:33.642Z,23.9
2018-05-07T09:21:24.236Z,23.9
2018-05-07T09:22:14.022Z,23.9
2018-05-07T09:23:04.064Z,23.9
2018-05-07T09:23:54.276Z,23.9
2018-05-07T09:24:45.045Z,23.9
2018-05-07T09:25:34.003Z,23.9
2018-05-07T09:26:24.184Z,23.9
2018-05-07T09:27:14.520Z,23.9
2018-05-07T09:28:03.344Z,23.9
2018-05-07T09:28:55.189Z,23.9
2018-05-07T09:29:45.187Z,23.9
2018-05-07T09:30:34.679Z,23.9
2018-05-07T09:31:25.052Z,23.9
2018-05-07T09:32:14.528Z,23.9
2018-05-07T09:33:05.158Z,23.9
2018-05-07T09:33:54.407Z,23.9
2018-05-07T09:34:45.565Z,23.9
2018-05-07T09:35:35.591Z,23.9
2018-05-07T09:36:25.377Z,23.9
2018-05-07T09:37:15.491Z,23.9
2018-05-07T09:38:04.968Z,23.9
2018-05-07T09:38:55.897Z,23.9
2018-05-07T09:39:45.938Z,23.9
2018-05-07T09:40:36.010Z,24
2018-05-07T09:41:26.082Z,24
2018-05-07T09:42:15.583Z,23.9
2018-05-07T09:43:06.219Z,23.9
2018-05-07T09:43:56.275Z,23.9
2018-05-07T09:44:46.068Z,23.9
2018-05-07T09:45:35.820Z,23.9
2018-05-07T09:46:26.173Z,23.9
2018-05-07T09:47:16.523Z,24
2018-05-07T09:48:06.345Z,24
2018-05-07T09:48:56.947Z,23.9
2018-05-07T09:49:46.496Z,24
2018-05-07T09:50:35.960Z,23.9
2018-05-07T09:51:26.589Z,24
2018-05-07T09:52:16.905Z,24
2018-05-07T09:53:06.697Z,24
2018-05-07T09:53:56.767Z,24
2018-05-07T09:54:46.550Z,24
2018-05-07T09:55:36.768Z,24
2018-05-07T09:56:27.237Z,23.9
2018-05-07T09:57:17.292Z,24
2018-05-07T09:58:07.399Z,24
2018-05-07T09:58:56.975Z,24
2018-05-07T09:59:47.471Z,24
2018-05-07T10:00:36.814Z,24
2018-05-07T10:01:27.353Z,24
2018-05-07T10:02:17.450Z,24
2018-05-07T10:03:07.798Z,24
2018-05-07T10:03:57.576Z,24
2018-05-07T10:04:47.628Z,24
2018-05-07T10:05:37.459Z,24
2018-05-07T10:06:27.571Z,24
2018-05-07T10:07:18.105Z,24
2018-05-07T10:08:07.322Z,24
2018-05-07T10:08:57.987Z,24
2018-05-07T10:09:48.018Z,24
2018-05-07T10:10:37.801Z,24
2018-05-07T10:11:27.863Z,24
2018-05-07T10:12:18.472Z,24
2018-05-07T10:13:07.985Z,24
2018-05-07T10:13:58.091Z,24
2018-05-07T10:14:48.665Z,24
2018-05-07T10:15:38.816Z,24
2018-05-07T10:16:28.548Z,24
2018-05-07T10:17:18.602Z,24
2018-05-07T10:18:08.669Z,24
2018-05-07T10:18:59.029Z,24
2018-05-07T10:19:48.325Z,24
2018-05-07T10:20:38.887Z,24
2018-05-07T10:21:29.228Z,24
2018-05-07T10:22:18.724Z,24
2018-05-07T10:23:08.890Z,24
2018-05-07T10:23:58.179Z,24
2018-05-07T10:24:48.714Z,24
2018-05-07T10:25:38.471Z,24
2018-05-07T10:26:29.099Z,24
2018-05-07T10:27:18.940Z,24
2018-05-07T10:28:07.308Z,24
2018-05-07T10:28:59.143Z,24
2018-05-07T10:29:48.955Z,24
2018-05-07T10:30:39.437Z,24
2018-05-07T10:31:29.508Z,24
2018-05-07T10:32:19.542Z,24
2018-05-07T10:33:09.886Z,24
2018-05-07T10:34:00.193Z,24
2018-05-07T10:34:50.010Z,24
2018-05-07T10:35:40.010Z,24
2018-05-07T10:36:29.646Z,24
2018-05-07T10:37:20.155Z,24
2018-05-07T10:38:10.244Z,24
2018-05-07T10:38:59.176Z,24
2018-05-07T10:39:50.363Z,24
2018-05-07T10:40:39.419Z,24
2018-05-07T10:41:29.917Z,23.9
2018-05-07T10:42:20.839Z,23.9
2018-05-07T10:43:09.221Z,23.9
2018-05-07T10:44:00.242Z,23.9
2018-05-07T10:44:51.044Z,23.9
2018-05-07T10:45:41.103Z,23.9
2018-05-07T10:46:31.201Z,23.9
2018-05-07T10:47:20.716Z,23.9
2018-05-07T10:48:11.023Z,23.9
2018-05-07T10:49:01.445Z,23.9
2018-05-07T10:49:51.218Z,23.9
2018-05-07T10:50:40.402Z,23.9
2018-05-07T10:51:31.045Z,23.9
2018-05-07T10:52:20.827Z,23.9
2018-05-07T10:53:11.453Z,23.9
2018-05-07T10:54:00.390Z,23.9
2018-05-07T10:54:51.270Z,23.9
2018-05-07T10:55:41.609Z,23.9
2018-05-07T10:56:31.754Z,23.9
2018-05-07T10:57:20.973Z,23.9
2018-05-07T10:58:11.891Z,23.9
2018-05-07T10:59:01.608Z,23.9
2018-05-07T10:59:51.980Z,23.9
2018-05-07T11:00:41.970Z,23.9
2018-05-07T11:01:31.061Z,23.9
2018-05-07T11:02:22.127Z,23.9
2018-05-07T11:03:11.637Z,23.9
2018-05-07T11:04:01.988Z,23.9
2018-05-07T11:04:51.802Z,23.9
2018-05-07T11:05:42.880Z,23.9
2018-05-07T11:06:32.732Z,23.9
2018-05-07T11:07:23.654Z,23.9
2018-05-07T11:08:12.617Z,23.9
2018-05-07T11:09:01.508Z,23.9
2018-05-07T11:09:52.179Z,23.9
2018-05-07T11:10:43.036Z,23.9
2018-05-07T11:11:32.851Z,23.9
2018-05-07T11:12:23.043Z,23.9
2018-05-07T11:13:12.702Z,23.9
2018-05-07T11:14:03.062Z,23.9
2018-05-07T11:14:53.178Z,23.9
2018-05-07T11:15:42.614Z,23.9
2018-05-07T11:16:33.052Z,23.9
2018-05-07T11:17:23.387Z,23.9
2018-05-07T11:18:13.457Z,23.9
2018-05-07T11:19:03.475Z,23.9
2018-05-07T11:19:54.611Z,23.9
2018-05-07T11:20:43.029Z,23.9
2018-05-07T11:21:33.635Z,23.9
2018-05-07T11:22:23.458Z,23.9
2018-05-07T11:23:13.786Z,23.9
2018-05-07T11:24:03.030Z,23.9
2018-05-07T11:24:53.413Z,23.9
2018-05-07T11:25:43.460Z,23.9
2018-05-07T11:26:33.533Z,23.9
2018-05-07T11:27:23.822Z,23.9
2018-05-07T11:28:13.632Z,23.9
2018-05-07T11:29:04.010Z,23.9
2018-05-07T11:29:54.061Z,23.9
2018-05-07T11:30:43.829Z,23.9
2018-05-07T11:31:34.754Z,23.9
2018-05-07T11:32:24.457Z,23.9
2018-05-07T11:33:14.524Z,23.8
2018-05-07T11:34:04.678Z,23.8
2018-05-07T11:34:55.026Z,23.8
2018-05-07T11:35:45.002Z,23.8
2018-05-07T11:36:34.516Z,23.8
2018-05-07T11:37:24.857Z,23.8
2018-05-07T11:38:14.938Z,23.8
2018-05-07T11:39:05.456Z,23.8
2018-05-07T11:39:55.080Z,23.8
2018-05-07T11:40:45.146Z,23.8
2018-05-07T11:41:34.650Z,23.8
2018-05-07T11:42:24.998Z,23.8
2018-05-07T11:43:15.067Z,23.8
2018-05-07T11:44:03.960Z,23.8
2018-05-07T11:44:54.413Z,23.8
2018-05-07T11:45:45.060Z,23.8
2018-05-07T11:46:35.325Z,23.8
2018-05-07T11:47:26.131Z,23.8
2018-05-07T11:48:15.693Z,23.8
2018-05-07T11:49:05.535Z,23.8
2018-05-07T11:49:55.587Z,23.8
2018-05-07T11:50:46.193Z,23.8
2018-05-07T11:51:36.254Z,23.8
2018-05-07T11:52:25.507Z,23.8
2018-05-07T11:53:17.651Z,23.8
2018-05-07T11:54:06.163Z,23.8
2018-05-07T11:54:55.954Z,23.8
2018-05-07T11:55:46.329Z,23.8
2018-05-07T11:56:35.881Z,23.8
2018-05-07T11:57:26.702Z,23.8
2018-05-07T11:58:16.216Z,23.8
2018-05-07T11:59:05.319Z,23.8
2018-05-07T11:59:56.351Z,23.8
2018-05-07T12:00:46.473Z,23.8
2018-05-07T12:01:36.799Z,23.8
2018-05-07T12:02:27.267Z,23.8
2018-05-07T12:03:16.422Z,23.8
2018-05-07T12:04:05.651Z,23.8
2018-05-07T12:04:56.448Z,23.8
2018-05-07T12:05:47.006Z,23.8
2018-05-07T12:06:36.891Z,23.8
2018-05-07T12:07:26.968Z,23.8
2018-05-07T12:08:16.736Z,23.9
2018-05-07T12:09:08.435Z,23.8
2018-05-07T12:09:57.173Z,23.8
2018-05-07T12:10:46.647Z,23.8
2018-05-07T12:11:37.620Z,23.8
2018-05-07T12:12:27.920Z,23.8
2018-05-07T12:13:16.556Z,23.9
2018-05-07T12:14:07.222Z,23.9
2018-05-07T12:14:57.516Z,23.8
2018-05-07T12:15:48.556Z,23.9
2018-05-07T12:16:38.265Z,23.9
2018-05-07T12:17:27.779Z,23.9
2018-05-07T12:18:18.340Z,23.9
2018-05-07T12:19:07.641Z,23.9
2018-05-07T12:19:58.174Z,23.9
2018-05-07T12:20:48.302Z,23.9
2018-05-07T12:21:38.596Z,23.9
2018-05-07T12:22:28.114Z,23.9
2018-05-07T12:23:19.575Z,23.9
2018-05-07T12:24:08.865Z,23.9
2018-05-07T12:24:58.252Z,23.9
2018-05-07T12:25:48.654Z,23.9
2018-05-07T12:26:38.153Z,23.9
2018-05-07T12:27:29.045Z,23.9
2018-05-07T12:28:18.892Z,23.9
2018-05-07T12:29:08.344Z,23.9
2018-05-07T12:29:58.977Z,23.9
2018-05-07T12:30:49.008Z,23.9
2018-05-07T12:31:41.013Z,23.9
2018-05-07T12:32:28.862Z,23.9
2018-05-07T12:33:18.655Z,23.9
2018-05-07T12:34:09.319Z,23.9
2018-05-07T12:34:58.801Z,23.9
2018-05-07T12:35:49.179Z,23.9
2018-05-07T12:36:39.793Z,23.9
2018-05-07T12:37:29.532Z,23.9
2018-05-07T12:38:19.062Z,23.9
2018-05-07T12:39:08.849Z,23.9
2018-05-07T12:40:00.064Z,23.9
2018-05-07T12:40:50.088Z,24
2018-05-07T12:41:40.142Z,24
2018-05-07T12:42:30.185Z,24
2018-05-07T12:43:19.461Z,24
2018-05-07T12:44:10.061Z,23.9
2018-05-07T12:44:59.594Z,24
2018-05-07T12:45:49.934Z,24
2018-05-07T12:46:39.970Z,24
2018-05-07T12:47:29.518Z,24
2018-05-07T12:48:20.669Z,24
2018-05-07T12:49:10.787Z,24
2018-05-07T12:50:00.333Z,24
2018-05-07T12:50:50.085Z,24
2018-05-07T12:51:40.680Z,24
2018-05-07T12:52:31.545Z,24
2018-05-07T12:53:19.999Z,24
2018-05-07T12:54:09.963Z,24
2018-05-07T12:55:00.465Z,24
2018-05-07T12:55:50.077Z,24
2018-05-07T12:56:40.792Z,24
2018-05-07T12:57:30.387Z,24
2018-05-07T12:58:20.513Z,24
2018-05-07T12:59:12.027Z,24
2018-05-07T13:00:00.529Z,24
2018-05-07T13:00:50.859Z,24
2018-05-07T13:01:41.592Z,24.1
2018-05-07T13:02:31.260Z,24.1
2018-05-07T13:03:21.611Z,24.1
2018-05-07T13:04:12.056Z,24.1
2018-05-07T13:05:01.440Z,24.1
2018-05-07T13:05:52.154Z,24.1
2018-05-07T13:06:41.835Z,24.1
2018-05-07T13:07:32.179Z,24.1
2018-05-07T13:08:21.490Z,24.1
2018-05-07T13:09:11.523Z,24.1
2018-05-07T13:10:02.159Z,24.1
2018-05-07T13:10:50.780Z,24.1
2018-05-07T13:11:42.727Z,24.1
2018-05-07T13:12:31.760Z,24.1
2018-05-07T13:13:21.880Z,24.1
2018-05-07T13:14:12.468Z,24.1
2018-05-07T13:15:02.506Z,24.1
2018-05-07T13:15:51.475Z,24.1
2018-05-07T13:16:41.776Z,24.1
2018-05-07T13:17:32.966Z,24.1
2018-05-07T13:18:22.992Z,24.1
2018-05-07T13:19:13.183Z,24.1
2018-05-07T13:20:02.901Z,24.1
2018-05-07T13:20:53.296Z,24.1
2018-05-07T13:21:43.311Z,24.1
2018-05-07T13:22:33.366Z,24.2
2018-05-07T13:23:23.514Z,24.2
2018-05-07T13:24:13.714Z,24.2
2018-05-07T13:25:03.468Z,24.2
2018-05-07T13:25:53.666Z,24.2
2018-05-07T13:26:43.441Z,24.2
2018-05-07T13:27:32.940Z,24.2
2018-05-07T13:28:22.476Z,24.2
2018-05-07T13:29:13.654Z,24.2
2018-05-07T13:30:03.129Z,24.2
2018-05-07T13:30:53.821Z,24.3
2018-05-07T13:31:43.841Z,24.3
2018-05-07T13:32:33.917Z,24.3
2018-05-07T13:33:24.059Z,24.3
2018-05-07T13:34:13.796Z,24.3
2018-05-07T13:35:03.861Z,24.3
2018-05-07T13:35:54.480Z,24.3
2018-05-07T13:36:44.511Z,24.3
2018-05-07T13:37:33.796Z,24.3
2018-05-07T13:38:24.095Z,24.3
2018-05-07T13:39:14.439Z,24.3
2018-05-07T13:40:04.493Z,24.3
2018-05-07T13:40:54.607Z,24.4
2018-05-07T13:41:44.648Z,24.4
2018-05-07T13:42:34.691Z,24.4
2018-05-07T13:43:24.476Z,24.4
2018-05-07T13:44:14.349Z,24.4
2018-05-07T13:45:05.164Z,24.4
2018-05-07T13:45:54.673Z,24.4
2018-05-07T13:46:45.270Z,24.4
2018-05-07T13:47:35.388Z,24.4
2018-05-07T13:48:25.188Z,24.4
2018-05-07T13:49:14.683Z,24.4
2018-05-07T13:50:05.287Z,24.4
2018-05-07T13:50:54.813Z,24.4
2018-05-07T13:51:45.704Z,24.4
2018-05-07T13:52:35.752Z,24.4
2018-05-07T13:53:25.597Z,24.4
2018-05-07T13:54:15.607Z,24.4
2018-05-07T13:55:05.423Z,24.4
2018-05-07T13:55:55.491Z,24.4
2018-05-07T13:56:45.977Z,24.4
2018-05-07T13:57:35.605Z,24.4
2018-05-07T13:58:26.234Z,24.4
2018-05-07T13:59:16.052Z,24.4
2018-05-07T14:00:06.336Z,24.4
2018-05-07T14:00:56.544Z,24.4
2018-05-07T14:01:46.255Z,24.4
2018-05-07T14:02:37.148Z,24.4
2018-05-07T14:03:25.779Z,24.4
2018-05-07T14:04:16.420Z,24.4
2018-05-07T14:05:06.748Z,24.4
2018-05-07T14:05:56.513Z,24.4
2018-05-07T14:06:46.333Z,24.4
2018-05-07T14:07:36.683Z,24.4
2018-05-07T14:08:27.519Z,24.4
2018-05-07T14:09:16.522Z,24.4
2018-05-07T14:10:06.356Z,24.4
2018-05-07T14:10:56.656Z,24.4
2018-05-07T14:11:46.724Z,24.4
2018-05-07T14:12:37.399Z,24.4
2018-05-07T14:13:26.902Z,24.5
2018-05-07T14:14:16.902Z,24.5
2018-05-07T14:15:07.299Z,24.4
2018-05-07T14:15:57.055Z,24.5
2018-05-07T14:16:48.890Z,24.5
2018-05-07T14:17:37.471Z,24.5
2018-05-07T14:18:27.253Z,24.5
2018-05-07T14:19:16.818Z,24.5
2018-05-07T14:20:07.723Z,24.5
2018-05-07T14:20:58.002Z,24.5
2018-05-07T14:21:48.103Z,24.5
2018-05-07T14:22:37.064Z,24.5
2018-05-07T14:23:28.207Z,24.5
2018-05-07T14:24:18.292Z,24.5
2018-05-07T14:25:07.863Z,24.5
2018-05-07T14:25:57.907Z,24.6
2018-05-07T14:26:48.460Z,24.6
2018-05-07T14:27:38.547Z,24.6
2018-05-07T14:28:28.386Z,24.6
2018-05-07T14:29:17.854Z,24.6
2018-05-07T14:30:08.190Z,24.6
2018-05-07T14:30:57.700Z,24.6
2018-05-07T14:31:48.065Z,24.6
2018-05-07T14:32:38.391Z,24.6
2018-05-07T14:33:28.673Z,24.6
2018-05-07T14:34:18.296Z,24.6
2018-05-07T14:35:09.134Z,24.6
2018-05-07T14:35:58.943Z,24.6
2018-05-07T14:36:48.704Z,24.6
2018-05-07T14:37:39.056Z,24.6
2018-05-07T14:38:29.374Z,24.6
2018-05-07T14:39:18.909Z,24.6
2018-05-07T14:40:09.547Z,24.6
2018-05-07T14:40:59.636Z,24.6
2018-05-07T14:41:46.887Z,24.6
2018-05-07T14:42:37.793Z,24.6
2018-05-07T14:43:27.043Z,24.6
2018-05-07T14:44:18.027Z,24.6
2018-05-07T14:45:07.147Z,24.6
2018-05-07T14:45:57.799Z,24.6
2018-05-07T14:46:47.583Z,24.6
2018-05-07T14:47:37.905Z,24.6
2018-05-07T14:48:28.245Z,24.6
2018-05-07T14:49:18.319Z,24.6
2018-05-07T14:50:08.185Z,24.6
2018-05-07T14:50:58.472Z,24.6
2018-05-07T14:51:47.967Z,24.6
2018-05-07T14:52:38.315Z,24.6
2018-05-07T14:53:27.563Z,24.6
2018-05-07T14:54:18.432Z,24.6
2018-05-07T14:55:08.822Z,24.6
2018-05-07T14:55:59.372Z,24.6
2018-05-07T14:56:48.980Z,24.6
2018-05-07T14:57:38.983Z,24.6
2018-05-07T14:58:28.496Z,24.6
2018-05-07T14:59:18.891Z,24.6
2018-05-07T15:00:09.200Z,24.6
2018-05-07T15:00:59.240Z,24.6
2018-05-07T15:01:48.735Z,24.6
2018-05-07T15:02:39.085Z,24.6
2018-05-07T15:03:29.436Z,24.6
2018-05-07T15:04:19.509Z,24.6
2018-05-07T15:05:09.597Z,24.6
2018-05-07T15:05:59.653Z,24.6
2018-05-07T15:06:49.152Z,24.6
2018-05-07T15:07:39.790Z,24.6
2018-05-07T15:08:29.821Z,24.6
2018-05-07T15:09:19.360Z,24.6
2018-05-07T15:10:08.885Z,24.6
2018-05-07T15:11:01.975Z,24.6
2018-05-07T15:11:51.466Z,24.6
2018-05-07T15:12:42.128Z,24.6
2018-05-07T15:13:31.591Z,24.6
2018-05-07T15:14:21.674Z,24.6
2018-05-07T15:15:11.722Z,24.6
2018-05-07T15:16:02.094Z,24.6
2018-05-07T15:16:52.442Z,24.6
2018-05-07T15:17:42.236Z,24.6
2018-05-07T15:18:32.565Z,24.6
2018-05-07T15:19:21.828Z,24.6
2018-05-07T15:20:12.420Z,24.6
2018-05-07T15:21:01.955Z,24.6
2018-05-07T15:21:52.557Z,24.6
2018-05-07T15:22:42.614Z,24.6
2018-05-07T15:23:33.170Z,24.6
2018-05-07T15:24:22.463Z,24.6
2018-05-07T15:25:12.548Z,24.6
2018-05-07T15:26:02.590Z,24.6
2018-05-07T15:26:51.933Z,24.6
2018-05-07T15:27:42.536Z,24.6
2018-05-07T15:28:32.637Z,24.5
2018-05-07T15:29:23.609Z,24.5
2018-05-07T15:30:13.213Z,24.6
2018-05-07T15:31:02.979Z,24.6
2018-05-07T15:31:53.656Z,24.5
2018-05-07T15:32:43.440Z,24.5
2018-05-07T15:33:32.927Z,24.5
2018-05-07T15:34:23.550Z,24.5
2018-05-07T15:35:13.617Z,24.5
2018-05-07T15:36:03.672Z,24.5
2018-05-07T15:36:53.787Z,24.5
2018-05-07T15:37:44.069Z,24.5
2018-05-07T15:38:33.584Z,24.5
2018-05-07T15:39:24.006Z,24.5
2018-05-07T15:40:14.030Z,24.5
2018-05-07T15:41:04.147Z,24.5
2018-05-07T15:41:54.157Z,24.5
2018-05-07T15:42:42.231Z,24.5
2018-05-07T15:43:34.331Z,24.5
2018-05-07T15:44:23.523Z,24.5
2018-05-07T15:45:14.694Z,24.5
2018-05-07T15:46:04.212Z,24.5
2018-05-07T15:46:54.874Z,24.4
2018-05-07T15:47:44.629Z,24.4
2018-05-07T15:48:35.027Z,24.4
2018-05-07T15:49:25.944Z,24.4
2018-05-07T15:50:14.519Z,24.4
2018-05-07T15:51:04.583Z,24.4
2018-05-07T15:51:54.400Z,24.4
2018-05-07T15:52:45.001Z,24.4
2018-05-07T15:53:34.449Z,24.4
2018-05-07T15:54:25.150Z,24.4
2018-05-07T15:55:15.172Z,24.4
2018-05-07T15:56:05.978Z,24.4
2018-05-07T15:56:55.624Z,24.4
2018-05-07T15:57:44.825Z,24.4
2018-05-07T15:58:35.491Z,24.4
2018-05-07T15:59:25.599Z,24.4
2018-05-07T16:00:14.766Z,24.4
2018-05-07T16:01:05.659Z,24.4
2018-05-07T16:01:55.989Z,24.4
2018-05-07T16:02:46.990Z,24.4
2018-05-07T16:03:35.557Z,24.4
2018-05-07T16:04:25.632Z,24.4
2018-05-07T16:05:15.697Z,24.4
2018-05-07T16:06:05.527Z,24.4
2018-05-07T16:06:56.424Z,24.4
2018-05-07T16:07:45.395Z,24.4
2018-05-07T16:08:36.319Z,24.4
2018-05-07T16:09:26.090Z,24.4
2018-05-07T16:10:16.081Z,24.4
2018-05-07T16:11:06.739Z,24.4
2018-05-07T16:11:56.883Z,24.4
2018-05-07T16:12:46.621Z,24.4
2018-05-07T16:13:36.624Z,24.4
2018-05-07T16:14:26.127Z,24.4
2018-05-07T16:15:18.011Z,24.4
2018-05-07T16:16:06.570Z,24.4
2018-05-07T16:16:57.277Z,24.4
2018-05-07T16:17:47.203Z,24.4
2018-05-07T16:18:37.776Z,24.4
2018-05-07T16:19:26.818Z,24.4
2018-05-07T16:20:16.593Z,24.4
2018-05-07T16:21:07.299Z,24.4
2018-05-07T16:21:58.750Z,24.4
2018-05-07T16:22:47.648Z,24.4
2018-05-07T16:23:39.301Z,24.4
2018-05-07T16:24:27.479Z,24.4
2018-05-07T16:25:17.293Z,24.4
2018-05-07T16:26:07.895Z,24.4
2018-05-07T16:26:57.705Z,24.4
2018-05-07T16:27:48.054Z,24.4
2018-05-07T16:28:38.055Z,24.4
2018-05-07T16:29:27.884Z,24.4
2018-05-07T16:30:17.671Z,24.4
2018-05-07T16:31:10.024Z,24.4
2018-05-07T16:31:58.125Z,24.4
2018-05-07T16:32:48.433Z,24.4